Time;durP1;ratioP1;P1;durP2;ratioP2;P2;SDS_P1;SDS_P2;PMS_P1;PMS_P2;Temp;Humidity;BMP_temperature;BMP_pressure;BME280_temperature;BME280_humidity;BME280_pressure;Samples;Min_cycle;Max_cycle;Signal;HPM_P1;HPM_P2
2022/04/14 00:00:21;;;;;;;1999.90;999.90;;;15.20;99.90;;;;;;5067956;28;20510;-66
2022/04/14 00:02:47;;;;;;;1999.90;999.90;;;15.10;99.90;;;;;;5067757;28;20469;-64
2022/04/14 00:05:15;;;;;;;1999.90;999.90;;;15.00;99.90;;;;;;5069688;28;20452;-66
2022/04/14 00:07:44;;;;;;;1999.90;999.90;;;15.00;99.90;;;;;;5071719;28;20503;-61
2022/04/14 00:10:10;;;;;;;1999.90;999.90;;;14.90;99.90;;;;;;5071551;28;20536;-64
2022/04/14 00:12:37;;;;;;;1999.90;999.90;;;14.80;99.90;;;;;;5073306;28;21039;-65
2022/04/14 00:15:05;;;;;;;1999.90;999.90;;;14.80;99.90;;;;;;5072985;28;20445;-64
2022/04/14 00:17:32;;;;;;;1999.90;999.90;;;14.70;99.90;;;;;;5072597;28;20445;-66
2022/04/14 00:19:59;;;;;;;1999.90;999.90;;;14.60;99.90;;;;;;5072793;28;20484;-65
2022/04/14 00:22:27;;;;;;;1999.90;999.90;;;14.60;99.90;;;;;;5074142;28;20465;-64
2022/04/14 00:24:54;;;;;;;1999.90;999.90;;;14.40;99.90;;;;;;5075781;28;20549;-64
2022/04/14 00:27:21;;;;;;;1999.90;999.90;;;14.30;99.90;;;;;;5071942;28;20449;-64
2022/04/14 00:29:48;;;;;;;1999.90;999.90;;;14.40;99.90;;;;;;5070186;28;20446;-64
2022/04/14 00:32:15;;;;;;;1999.90;999.90;;;14.40;99.90;;;;;;5069791;28;21101;-66
2022/04/14 00:34:41;;;;;;;1999.90;999.90;;;14.40;99.90;;;;;;5070956;28;20461;-64
2022/04/14 00:37:09;;;;;;;1999.90;999.90;;;14.30;99.90;;;;;;5069173;28;20943;-65
2022/04/14 00:39:37;;;;;;;1999.90;999.90;;;14.40;99.90;;;;;;5069784;28;20461;-64
2022/04/14 00:42:09;;;;;;;1999.90;999.90;;;14.30;99.90;;;;;;5070198;28;21049;-65
2022/04/14 00:44:36;;;;;;;1999.90;999.90;;;14.20;99.90;;;;;;5069434;28;20959;-65
2022/04/14 00:47:02;;;;;;;1999.90;999.90;;;14.30;99.90;;;;;;5069416;28;20450;-65
2022/04/14 00:49:30;;;;;;;1999.90;999.90;;;14.30;99.90;;;;;;5069515;28;20449;-66
2022/04/14 00:51:58;;;;;;;1999.90;999.90;;;14.10;99.90;;;;;;5067354;28;20465;-65
2022/04/14 00:54:24;;;;;;;1999.90;999.90;;;14.10;99.90;;;;;;5071060;28;20513;-65
2022/04/14 00:56:52;;;;;;;1999.90;999.90;;;14.00;99.90;;;;;;5071047;28;21014;-65
2022/04/14 00:59:19;;;;;;;1999.90;999.90;;;13.90;99.90;;;;;;5070082;28;20924;-64
2022/04/14 01:01:46;;;;;;;1999.90;999.90;;;13.80;99.90;;;;;;5068234;28;20904;-61
2022/04/14 01:04:13;;;;;;;1999.90;999.90;;;13.80;99.90;;;;;;5069284;28;21008;-64
2022/04/14 01:06:40;;;;;;;1999.90;999.90;;;13.70;99.90;;;;;;5065909;28;20476;-64
2022/04/14 01:09:19;;;;;;;1999.90;999.90;;;13.80;99.90;;;;;;5070448;28;20579;-64
2022/04/14 01:11:47;;;;;;;1999.90;999.90;;;13.70;99.90;;;;;;5070109;28;20544;-64
2022/04/14 01:14:21;;;;;;;1999.90;999.90;;;13.70;99.90;;;;;;5067539;28;20826;-65
2022/04/14 01:16:48;;;;;;;1999.90;999.90;;;13.70;99.90;;;;;;5067154;28;20451;-66
2022/04/14 01:19:15;;;;;;;1999.90;999.90;;;13.50;99.90;;;;;;5069331;28;20453;-61
2022/04/14 01:21:45;;;;;;;1999.90;999.90;;;13.50;99.90;;;;;;5068229;28;20547;-64
2022/04/14 01:24:14;;;;;;;1999.90;999.90;;;13.50;99.90;;;;;;5067790;28;20433;-64
2022/04/14 01:26:41;;;;;;;1999.90;999.90;;;13.50;99.90;;;;;;5068806;28;21026;-66
2022/04/14 01:29:19;;;;;;;1999.90;999.90;;;13.50;99.90;;;;;;5069535;28;20938;-65
2022/04/14 01:31:45;;;;;;;1999.90;999.90;;;13.50;99.90;;;;;;5068102;28;20514;-65
2022/04/14 01:34:12;;;;;;;1999.90;999.90;;;13.50;99.90;;;;;;5068397;28;20461;-65
2022/04/14 01:36:39;;;;;;;1999.90;999.90;;;13.50;99.90;;;;;;5069867;28;20506;-65
2022/04/14 01:39:05;;;;;;;1999.90;999.90;;;13.50;99.90;;;;;;5071132;28;20445;-66
2022/04/14 01:41:33;;;;;;;1999.90;999.90;;;13.50;99.90;;;;;;5090727;28;20472;-64
2022/04/14 01:44:00;;;;;;;1999.90;999.90;;;13.40;99.90;;;;;;5071488;28;20958;-65
2022/04/14 01:46:27;;;;;;;1999.90;999.90;;;13.50;99.90;;;;;;5071745;28;20449;-62
2022/04/14 01:48:54;;;;;;;1999.90;999.90;;;13.40;99.90;;;;;;5071462;28;20503;-63
2022/04/14 01:51:20;;;;;;;1999.90;999.90;;;13.50;99.90;;;;;;5088546;28;20476;-66
2022/04/14 01:53:47;;;;;;;1999.90;999.90;;;13.50;99.90;;;;;;5081461;28;20456;-65
2022/04/14 01:56:13;;;;;;;1999.90;999.90;;;13.40;99.90;;;;;;5086938;28;20452;-66
2022/04/14 01:58:41;;;;;;;1999.90;999.90;;;13.40;99.90;;;;;;5092267;28;20502;-65
2022/04/14 02:01:09;;;;;;;1999.90;999.90;;;13.50;99.90;;;;;;5084855;28;20476;-63
2022/04/14 02:03:36;;;;;;;1999.90;999.90;;;13.40;99.90;;;;;;5090410;28;20480;-65
2022/04/14 02:06:02;;;;;;;1999.90;999.90;;;13.40;99.90;;;;;;5077983;28;20815;-65
2022/04/14 02:08:29;;;;;;;1999.90;999.90;;;13.30;99.90;;;;;;5070546;28;20515;-65
2022/04/14 02:10:56;;;;;;;1999.90;999.90;;;13.30;99.90;;;;;;5072447;28;20449;-62
2022/04/14 02:13:22;;;;;;;1999.90;999.90;;;13.20;99.90;;;;;;5071302;28;20477;-65
2022/04/14 02:15:50;;;;;;;1999.90;999.90;;;13.20;99.90;;;;;;5072828;28;20453;-65
2022/04/14 02:18:17;;;;;;;1999.90;999.90;;;13.20;99.90;;;;;;5070690;28;20503;-62
2022/04/14 02:20:43;;;;;;;1999.90;999.90;;;13.30;99.90;;;;;;5070441;28;21048;-64
2022/04/14 02:23:10;;;;;;;1999.90;999.90;;;13.30;99.90;;;;;;5070094;28;20524;-65
2022/04/14 02:25:37;;;;;;;1999.90;999.90;;;13.40;99.90;;;;;;5071320;28;20453;-66
2022/04/14 02:28:04;;;;;;;1999.90;999.90;;;13.40;99.90;;;;;;5072818;28;20446;-65
2022/04/14 02:30:33;;;;;;;1999.90;999.90;;;13.30;99.90;;;;;;5076595;28;20472;-62
2022/04/14 02:33:01;;;;;;;1999.90;999.90;;;13.10;99.90;;;;;;5070849;28;20469;-61
2022/04/14 02:35:28;;;;;;;1999.90;999.90;;;13.10;99.90;;;;;;5070875;28;21158;-62
2022/04/14 02:37:55;;;;;;;1999.90;999.90;;;13.00;99.90;;;;;;5069969;28;20449;-65
2022/04/14 02:40:23;;;;;;;1999.90;999.90;;;13.00;99.90;;;;;;5071805;28;20554;-60
2022/04/14 02:42:50;;;;;;;1999.90;999.90;;;13.00;99.90;;;;;;5071150;28;20465;-64
2022/04/14 02:45:17;;;;;;;1999.90;999.90;;;12.90;99.90;;;;;;5070599;28;20445;-64
2022/04/14 02:47:44;;;;;;;1999.90;999.90;;;12.90;99.90;;;;;;5069810;28;20943;-64
2022/04/14 02:50:12;;;;;;;1999.90;999.90;;;13.10;99.90;;;;;;5083332;28;20514;-64
2022/04/14 02:52:38;;;;;;;1999.90;999.90;;;13.10;99.90;;;;;;5071398;28;21256;-65
2022/04/14 02:55:06;;;;;;;1999.90;999.90;;;13.10;99.90;;;;;;5071376;28;20475;-63
2022/04/14 02:57:34;;;;;;;1999.90;999.90;;;13.10;99.90;;;;;;5070957;28;20446;-64
2022/04/14 03:00:01;;;;;;;1999.90;999.90;;;13.10;99.90;;;;;;5071020;28;20488;-65
2022/04/14 03:02:27;;;;;;;1999.90;999.90;;;13.20;99.90;;;;;;5069456;28;20932;-66
2022/04/14 03:04:54;;;;;;;1999.90;999.90;;;13.30;99.90;;;;;;5071368;28;20475;-66
2022/04/14 03:07:22;;;;;;;1999.90;999.90;;;13.20;99.90;;;;;;5070366;28;20536;-62
2022/04/14 03:09:49;;;;;;;1999.90;999.90;;;13.20;99.90;;;;;;5071450;28;20449;-64
2022/04/14 03:12:16;;;;;;;1999.90;999.90;;;13.20;99.90;;;;;;5070746;28;20472;-65
2022/04/14 03:14:43;;;;;;;1999.90;999.90;;;13.20;99.90;;;;;;5070006;28;20452;-65
2022/04/14 03:17:10;;;;;;;1999.90;999.90;;;13.20;99.90;;;;;;5070238;28;20914;-62
2022/04/14 03:19:37;;;;;;;1999.90;999.90;;;13.30;99.90;;;;;;5077864;28;20445;-67
2022/04/14 03:22:04;;;;;;;1999.90;999.90;;;13.40;99.90;;;;;;5069815;28;20489;-65
2022/04/14 03:24:32;;;;;;;1999.90;999.90;;;13.60;99.90;;;;;;5070573;28;20806;-67
2022/04/14 03:26:59;;;;;;;1999.90;999.90;;;13.10;99.90;;;;;;5070523;28;20574;-67
2022/04/14 03:29:28;;;;;;;1999.90;999.90;;;13.50;99.90;;;;;;5076887;28;20498;-65
2022/04/14 03:31:55;;;;;;;1999.90;999.90;;;13.40;99.90;;;;;;5049655;28;20520;-65
2022/04/14 03:34:21;;;;;;;1999.90;999.90;;;13.40;99.90;;;;;;5068711;28;20497;-65
2022/04/14 03:36:48;;;;;;;1999.90;999.90;;;13.50;99.90;;;;;;5070605;28;20816;-63
2022/04/14 03:39:16;;;;;;;1999.90;999.90;;;13.40;99.90;;;;;;5072726;28;20446;-64
2022/04/14 03:41:44;;;;;;;1999.90;999.90;;;13.30;99.90;;;;;;5074310;28;20534;-66
2022/04/14 03:44:10;;;;;;;1999.90;999.90;;;13.40;99.90;;;;;;5081520;28;20448;-65
2022/04/14 03:46:37;;;;;;;1999.90;999.90;;;13.40;99.90;;;;;;5093707;28;20448;-66
2022/04/14 03:49:04;;;;;;;1999.90;999.90;;;13.50;99.90;;;;;;5084782;28;20498;-62
2022/04/14 03:51:30;;;;;;;1999.90;999.90;;;13.50;99.90;;;;;;5073034;28;21126;-65
2022/04/14 03:53:57;;;;;;;1999.90;999.90;;;13.50;99.90;;;;;;5079309;28;20482;-65
2022/04/14 03:56:23;;;;;;;1999.90;999.90;;;13.50;99.90;;;;;;5094694;28;20501;-66
2022/04/14 03:58:51;;;;;;;1999.90;999.90;;;13.50;99.90;;;;;;5092218;28;20470;-64
2022/04/14 04:01:18;;;;;;;1999.90;999.90;;;13.40;99.90;;;;;;5092940;28;20589;-66
2022/04/14 04:03:45;;;;;;;1999.90;999.90;;;13.40;99.90;;;;;;5085666;28;21065;-66
2022/04/14 04:06:11;;;;;;;1999.90;999.90;;;13.40;99.90;;;;;;5073353;28;20445;-65
2022/04/14 04:08:38;;;;;;;1999.90;999.90;;;13.80;99.90;;;;;;5075760;28;20508;-63
2022/04/14 04:11:05;;;;;;;1999.90;999.90;;;13.40;99.90;;;;;;5074713;28;20445;-64
2022/04/14 04:13:32;;;;;;;1999.90;999.90;;;13.40;99.90;;;;;;5075426;28;20988;-64
2022/04/14 04:16:00;;;;;;;1999.90;999.90;;;13.30;99.90;;;;;;5074725;28;20934;-63
2022/04/14 04:18:26;;;;;;;1999.90;999.90;;;13.30;99.90;;;;;;5075910;28;20446;-64
2022/04/14 04:20:53;;;;;;;1999.90;999.90;;;13.40;99.90;;;;;;5093285;28;20484;-64
2022/04/14 04:23:20;;;;;;;1999.90;999.90;;;13.40;99.90;;;;;;5083358;28;20468;-61
2022/04/14 04:25:46;;;;;;;1999.90;999.90;;;13.40;99.90;;;;;;5094337;28;20853;-64
2022/04/14 04:28:13;;;;;;;1999.90;999.90;;;13.40;99.90;;;;;;5086506;28;20441;-64
2022/04/14 04:30:40;;;;;;;1999.90;999.90;;;13.40;99.90;;;;;;5075035;28;20453;-60
2022/04/14 04:33:08;;;;;;;1999.90;999.90;;;13.40;99.90;;;;;;5073969;28;20469;-66
2022/04/14 04:35:35;;;;;;;1999.90;999.90;;;13.40;99.90;;;;;;5074118;28;20453;-66
2022/04/14 04:38:01;;;;;;;1999.90;999.90;;;13.30;99.90;;;;;;5077613;28;20463;-66
2022/04/14 04:40:28;;;;;;;1999.90;999.90;;;13.30;99.90;;;;;;5094524;28;20448;-67
2022/04/14 04:42:55;;;;;;;1999.90;999.90;;;13.40;99.90;;;;;;5090828;28;20547;-65
2022/04/14 04:45:21;;;;;;;1999.90;999.90;;;13.40;99.90;;;;;;5074170;28;20503;-66
2022/04/14 04:47:48;;;;;;;1999.90;999.90;;;13.30;99.90;;;;;;5074564;28;20943;-66
2022/04/14 04:50:16;;;;;;;1999.90;999.90;;;13.50;99.90;;;;;;5084397;28;20453;-65
2022/04/14 04:52:43;;;;;;;1999.90;999.90;;;13.50;99.90;;;;;;5074613;28;20515;-64
2022/04/14 04:55:10;;;;;;;1999.90;999.90;;;13.50;99.90;;;;;;5094332;28;20494;-65
2022/04/14 04:57:37;;;;;;;1999.90;999.90;;;13.60;99.90;;;;;;5093830;28;20452;-66
2022/04/14 05:00:04;;;;;;;1999.90;999.90;;;13.60;99.90;;;;;;5074825;28;20449;-65
2022/04/14 05:02:31;;;;;;;1999.90;999.90;;;13.40;99.90;;;;;;5073170;28;20481;-65
2022/04/14 05:04:58;;;;;;;1999.90;999.90;;;13.40;99.90;;;;;;5100299;22;20549;-66
2022/04/14 05:07:26;;;;;;;1999.90;999.90;;;13.30;99.90;;;;;;5073552;28;20934;-69
2022/04/14 05:09:53;;;;;;;1999.90;999.90;;;13.30;99.90;;;;;;5074613;28;20503;-69
2022/04/14 05:12:19;;;;;;;1999.90;999.90;;;13.40;99.90;;;;;;5073457;28;20441;-69
2022/04/14 05:14:46;;;;;;;1999.90;999.90;;;13.50;99.90;;;;;;5074294;28;20576;-65
2022/04/14 05:17:12;;;;;;;1999.90;999.90;;;13.40;99.90;;;;;;5073197;28;20450;-65
2022/04/14 05:19:39;;;;;;;1999.90;999.90;;;13.40;99.90;;;;;;5072906;28;20590;-68
2022/04/14 05:22:06;;;;;;;1999.90;999.90;;;13.30;99.90;;;;;;5073573;28;20485;-68
2022/04/14 05:24:34;;;;;;;1999.90;999.90;;;13.40;99.90;;;;;;5077009;28;20470;-68
2022/04/14 05:27:01;;;;;;;1999.90;999.90;;;13.30;99.90;;;;;;5074747;28;20454;-67
2022/04/14 05:29:28;;;;;;;1999.90;999.90;;;13.40;99.90;;;;;;5072961;28;20511;-68
2022/04/14 05:31:54;;;;;;;1999.90;999.90;;;13.40;99.90;;;;;;5072812;28;20437;-66
2022/04/14 05:34:21;;;;;;;1999.90;999.90;;;13.50;99.90;;;;;;5072626;28;20469;-68
2022/04/14 05:36:48;;;;;;;1999.90;999.90;;;13.70;99.90;;;;;;5072701;28;20449;-66
2022/04/14 05:39:14;;;;;;;1999.90;999.90;;;13.70;99.90;;;;;;5072480;28;20446;-68
2022/04/14 05:41:42;;;;;;;1999.90;999.90;;;13.60;99.90;;;;;;5072399;28;20994;-69
2022/04/14 05:44:09;;;;;;;1999.90;999.90;;;13.50;99.90;;;;;;5072054;28;20499;-65
2022/04/14 05:46:35;;;;;;;1999.90;999.90;;;13.70;99.90;;;;;;5072398;28;20461;-68
2022/04/14 05:49:02;;;;;;;1999.90;999.90;;;13.70;99.90;;;;;;5072338;28;20450;-69
2022/04/14 05:51:29;;;;;;;1999.90;999.90;;;13.70;99.90;;;;;;5069102;28;20445;-67
2022/04/14 05:53:55;;;;;;;1999.90;999.90;;;13.70;99.90;;;;;;5067915;28;20493;-68
2022/04/14 05:56:22;;;;;;;1999.90;999.90;;;13.80;99.90;;;;;;5069922;28;20453;-69
2022/04/14 05:58:50;;;;;;;1999.90;999.90;;;13.80;99.90;;;;;;5070833;28;20478;-68
2022/04/14 06:01:17;;;;;;;1999.90;999.90;;;13.80;99.90;;;;;;5070032;28;20503;-66
2022/04/14 06:03:43;;;;;;;1999.90;999.90;;;13.80;99.90;;;;;;5071037;28;20482;-66
2022/04/14 06:06:12;;;;;;;1999.90;999.90;;;13.80;99.90;;;;;;5071856;28;20454;-68
2022/04/14 06:08:39;;;;;;;1999.90;999.90;;;13.80;99.90;;;;;;5072122;28;20507;-69
2022/04/14 06:11:06;;;;;;;1999.90;999.90;;;13.80;99.90;;;;;;5071834;28;20938;-67
2022/04/14 06:13:33;;;;;;;1999.90;999.90;;;13.80;99.90;;;;;;5071293;28;20461;-69
2022/04/14 06:16:00;;;;;;;1999.90;999.90;;;13.80;99.90;;;;;;5071393;28;20441;-69
2022/04/14 06:18:27;;;;;;;1999.90;999.90;;;13.80;99.90;;;;;;5071236;28;20562;-68
2022/04/14 06:20:54;;;;;;;1999.90;999.90;;;13.70;99.90;;;;;;5071846;28;20445;-70
2022/04/14 06:23:21;;;;;;;1999.90;999.90;;;13.80;99.90;;;;;;5071309;28;20473;-69
2022/04/14 06:25:49;;;;;;;1999.90;999.90;;;13.80;99.90;;;;;;5072005;28;20454;-67
2022/04/14 06:28:16;;;;;;;1999.90;999.90;;;13.90;99.90;;;;;;5071402;28;20481;-69
2022/04/14 06:30:42;;;;;;;1999.90;999.90;;;13.80;99.90;;;;;;5070740;28;20846;-68
2022/04/14 06:33:10;;;;;;;1999.90;999.90;;;13.90;99.90;;;;;;5069931;28;20475;-68
2022/04/14 06:35:37;;;;;;;1999.90;999.90;;;13.80;99.90;;;;;;5071580;28;21019;-67
2022/04/14 06:38:04;;;;;;;1999.90;999.90;;;13.80;99.90;;;;;;5071288;28;20495;-68
2022/04/14 06:40:31;;;;;;;1999.90;999.90;;;13.70;99.90;;;;;;5072004;28;20503;-68
2022/04/14 06:42:59;;;;;;;1999.90;999.90;;;13.80;99.90;;;;;;5070605;28;20530;-68
2022/04/14 06:45:25;;;;;;;1999.90;999.90;;;13.70;99.90;;;;;;5056362;28;20470;-68
2022/04/14 06:47:52;;;;;;;1999.90;999.90;;;13.80;99.90;;;;;;5070727;28;20499;-66
2022/04/14 06:50:20;;;;;;;1999.90;999.90;;;13.90;99.90;;;;;;5071545;28;20878;-69
2022/04/14 06:52:47;;;;;;;1999.90;999.90;;;13.90;99.90;;;;;;5070494;28;21018;-69
2022/04/14 06:55:15;;;;;;;1999.90;999.90;;;13.90;99.90;;;;;;5070897;28;20531;-66
2022/04/14 06:57:42;;;;;;;1999.90;999.90;;;13.90;99.90;;;;;;5072254;28;20453;-68
2022/04/14 07:00:10;;;;;;;1999.90;999.90;;;13.90;99.90;;;;;;5069050;28;21004;-66
2022/04/14 07:02:45;;;;;;;1999.90;999.90;;;13.80;99.90;;;;;;5062484;28;20480;-67
2022/04/14 07:05:12;;;;;;;1999.90;999.90;;;13.80;99.90;;;;;;5071051;28;20550;-68
2022/04/14 07:07:40;;;;;;;1999.90;999.90;;;13.80;99.90;;;;;;5073553;28;20450;-67
2022/04/14 07:10:07;;;;;;;1999.90;999.90;;;13.80;99.90;;;;;;5071415;28;20461;-68
2022/04/14 07:12:34;;;;;;;1999.90;999.90;;;13.80;99.90;;;;;;5090529;28;20444;-68
2022/04/14 07:15:01;;;;;;;1999.90;999.90;;;13.90;99.90;;;;;;5082104;28;20888;-68
2022/04/14 07:17:28;;;;;;;1999.90;999.90;;;13.90;99.90;;;;;;5074462;28;20469;-66
2022/04/14 07:19:55;;;;;;;1999.90;999.90;;;13.90;99.90;;;;;;5079330;28;20855;-67
2022/04/14 07:22:21;;;;;;;1999.90;999.90;;;13.90;99.90;;;;;;5079554;28;20481;-68
2022/04/14 07:24:50;;;;;;;1999.90;999.90;;;13.80;99.90;;;;;;5074443;28;20527;-70
2022/04/14 07:27:19;;;;;;;1999.90;999.90;;;13.80;99.90;;;;;;5072070;28;20457;-67
2022/04/14 07:29:46;;;;;;;1999.90;999.90;;;13.70;99.90;;;;;;5072963;28;20450;-71
2022/04/14 07:32:13;;;;;;;1999.90;999.90;;;13.60;99.90;;;;;;5075038;28;20548;-71
2022/04/14 07:34:40;;;;;;;1999.90;999.90;;;13.70;99.90;;;;;;5072273;28;21040;-68
2022/04/14 07:37:06;;;;;;;1999.90;999.90;;;13.70;99.90;;;;;;5075067;28;20449;-66
2022/04/14 07:39:33;;;;;;;1999.90;999.90;;;13.60;99.90;;;;;;5075000;28;20437;-66
2022/04/14 07:42:01;;;;;;;1999.90;999.90;;;13.70;99.90;;;;;;5074094;28;20477;-67
2022/04/14 07:44:28;;;;;;;1999.90;999.90;;;13.70;99.90;;;;;;5075541;28;20470;-69
2022/04/14 07:46:55;;;;;;;1999.90;999.90;;;13.70;99.90;;;;;;5078036;28;20445;-69
2022/04/14 07:49:22;;;;;;;1999.90;999.90;;;13.60;99.90;;;;;;5073806;28;20459;-68
2022/04/14 07:51:48;;;;;;;1999.90;999.90;;;13.50;99.90;;;;;;5076676;28;20441;-69
2022/04/14 07:54:15;;;;;;;1999.90;999.90;;;13.40;99.90;;;;;;5075328;28;20469;-68
2022/04/14 07:56:42;;;;;;;1999.90;999.90;;;13.40;99.90;;;;;;5075427;28;20511;-68
2022/04/14 07:59:10;;;;;;;1999.90;999.90;;;13.40;99.90;;;;;;5075256;28;20950;-69
2022/04/14 08:01:37;;;;;;;1999.90;999.90;;;13.30;99.90;;;;;;5076001;28;20459;-69
2022/04/14 08:04:03;;;;;;;1999.90;999.90;;;13.30;99.90;;;;;;5071594;28;20485;-69
2022/04/14 08:06:31;;;;;;;1999.90;999.90;;;13.30;99.90;;;;;;5073396;28;20544;-68
2022/04/14 08:08:58;;;;;;;1999.90;999.90;;;13.20;99.90;;;;;;5074673;28;20452;-68
2022/04/14 08:11:24;;;;;;;1999.90;999.90;;;13.30;99.90;;;;;;5073513;28;20465;-68
2022/04/14 08:13:51;;;;;;;1999.90;999.90;;;13.30;99.90;;;;;;5073716;28;20461;-68
2022/04/14 08:16:19;;;;;;;1999.90;999.90;;;13.30;99.90;;;;;;5054462;28;20861;-66
2022/04/14 08:18:46;;;;;;;1999.90;999.90;;;13.30;99.90;;;;;;5068651;28;20496;-69
2022/04/14 08:21:13;;;;;;;1999.90;999.90;;;13.30;99.90;;;;;;5061215;28;20492;-68
2022/04/14 08:23:40;;;;;;;1999.90;999.90;;;13.40;99.90;;;;;;5071257;28;20907;-68
2022/04/14 08:26:09;;;;;;;1999.90;999.90;;;13.40;99.90;;;;;;5074395;28;20499;-68
2022/04/14 08:28:40;;;;;;;1999.90;999.90;;;13.60;99.90;;;;;;5069276;28;20458;-65
2022/04/14 08:31:07;;;;;;;1999.90;999.90;;;13.60;99.90;;;;;;5066072;28;20469;-67
2022/04/14 08:33:36;;;;;;;1999.90;999.90;;;13.60;99.90;;;;;;5073165;28;20466;-68
2022/04/14 08:36:03;;;;;;;1999.90;999.90;;;13.60;99.90;;;;;;5072985;28;20975;-67
2022/04/14 08:38:30;;;;;;;1999.90;999.90;;;13.60;99.90;;;;;;5071557;28;20530;-67
2022/04/14 08:41:00;;;;;;;1999.90;999.90;;;13.70;99.90;;;;;;5073946;28;20506;-68
2022/04/14 08:43:33;;;;;;;1999.90;999.90;;;13.70;99.90;;;;;;5073311;28;20505;-67
2022/04/14 08:46:01;;;;;;;1999.90;999.90;;;13.70;99.90;;;;;;5072862;28;20489;-66
2022/04/14 08:48:28;;;;;;;1999.90;999.90;;;13.70;99.90;;;;;;5068335;28;20442;-67
2022/04/14 08:50:56;;;;;;;1999.90;999.90;;;13.70;99.90;;;;;;5073446;28;20494;-67
2022/04/14 08:53:25;;;;;;;1999.90;999.90;;;13.70;99.90;;;;;;5086818;28;20445;-68
2022/04/14 08:55:52;;;;;;;1999.90;999.90;;;13.70;99.90;;;;;;5063678;28;20515;-68
2022/04/14 08:58:26;;;;;;;1999.90;999.90;;;13.80;99.90;;;;;;5073895;28;20441;-68
2022/04/14 09:00:53;;;;;;;1999.90;999.90;;;13.80;99.90;;;;;;5072405;28;20528;-68
2022/04/14 09:03:20;;;;;;;1999.90;999.90;;;13.90;99.90;;;;;;5070930;28;20485;-68
2022/04/14 09:05:47;;;;;;;1999.90;999.90;;;14.00;99.90;;;;;;5073471;28;21006;-68
2022/04/14 09:08:15;;;;;;;1999.90;999.90;;;13.90;99.90;;;;;;5072705;28;20485;-68
2022/04/14 09:10:42;;;;;;;1999.90;999.90;;;14.00;99.90;;;;;;5071716;28;20449;-68
2022/04/14 09:13:12;;;;;;;1999.90;999.90;;;14.10;99.90;;;;;;5073049;28;20438;-69
2022/04/14 09:15:39;;;;;;;1999.90;999.90;;;14.10;99.90;;;;;;5072398;28;20804;-68
2022/04/14 09:18:07;;;;;;;1999.90;999.90;;;14.10;99.90;;;;;;5073046;28;20519;-69
2022/04/14 09:20:36;;;;;;;1999.90;999.90;;;14.00;99.90;;;;;;5072625;28;20519;-66
2022/04/14 09:23:20;;;;;;;1999.90;999.90;;;14.00;99.90;;;;;;5073919;28;20489;-69
2022/04/14 09:25:48;;;;;;;1999.90;999.90;;;14.00;99.90;;;;;;5071487;28;21167;-69
2022/04/14 09:28:16;;;;;;;1999.90;999.90;;;14.10;99.90;;;;;;5072457;28;20483;-68
2022/04/14 09:30:59;;;;;;;1999.90;999.90;;;14.00;99.90;;;;;;5072396;28;20465;-67
2022/04/14 09:33:26;;;;;;;1999.90;999.90;;;14.00;99.90;;;;;;5065249;28;21019;-68
2022/04/14 09:36:08;;;;;;;1999.90;999.90;;;13.90;99.90;;;;;;5070865;28;20515;-69
2022/04/14 09:38:52;;;;;;;1999.90;999.90;;;13.90;99.90;;;;;;5068306;28;20457;-68
2022/04/14 09:41:31;;;;;;;1999.90;999.90;;;14.00;99.90;;;;;;5071883;28;20469;-68
2022/04/14 09:43:59;;;;;;;1999.90;999.90;;;13.90;99.90;;;;;;5070836;28;20485;-69
2022/04/14 09:46:25;;;;;;;1999.90;999.90;;;13.90;99.90;;;;;;5071946;28;20449;-67
2022/04/14 09:49:00;;;;;;;1999.90;999.90;;;14.00;99.90;;;;;;5072471;28;20540;-69
2022/04/14 09:51:27;;;;;;;1999.90;999.90;;;13.90;99.90;;;;;;5081578;28;20479;-68
2022/04/14 09:54:03;;;;;;;1999.90;999.90;;;13.90;99.90;;;;;;5071727;28;20530;-68
2022/04/14 09:56:40;;;;;;;1999.90;999.90;;;13.90;99.90;;;;;;5076798;28;20449;-69
2022/04/14 09:59:07;;;;;;;1999.90;999.90;;;13.80;99.90;;;;;;5087613;28;20497;-68
2022/04/14 10:01:34;;;;;;;1999.90;999.90;;;13.70;99.90;;;;;;5074860;28;20560;-67
2022/04/14 10:04:01;;;;;;;1999.90;999.90;;;13.70;99.90;;;;;;5079640;28;20480;-67
2022/04/14 10:06:29;;;;;;;1999.90;999.90;;;13.80;99.90;;;;;;5081414;28;20878;-67
2022/04/14 10:08:55;;;;;;;1999.90;999.90;;;13.80;99.90;;;;;;5075530;28;20467;-69
2022/04/14 10:11:27;;;;;;;1999.90;999.90;;;13.80;99.90;;;;;;5074421;28;20449;-69
2022/04/14 10:13:54;;;;;;;1999.90;999.90;;;13.70;99.90;;;;;;5084415;28;20539;-68
2022/04/14 10:16:25;;;;;;;1999.90;999.90;;;13.70;99.90;;;;;;5086176;28;20510;-68
2022/04/14 10:18:53;;;;;;;1999.90;999.90;;;13.70;99.90;;;;;;5070960;28;20528;-69
2022/04/14 10:21:22;;;;;;;1999.90;999.90;;;13.60;99.90;;;;;;5070710;28;20866;-67
2022/04/14 10:23:49;;;;;;;1999.90;999.90;;;13.60;99.90;;;;;;5068688;28;20481;-68
2022/04/14 10:26:17;;;;;;;1999.90;999.90;;;13.60;99.90;;;;;;5069860;28;20457;-68
2022/04/14 10:28:46;;;;;;;1999.90;999.90;;;13.70;99.90;;;;;;5071378;28;20449;-68
2022/04/14 10:31:13;;;;;;;1999.90;999.90;;;13.60;99.90;;;;;;5071946;28;20502;-69
2022/04/14 10:33:42;;;;;;;1999.90;999.90;;;13.40;99.90;;;;;;5070643;28;20465;-69
2022/04/14 10:36:09;;;;;;;1999.90;999.90;;;13.50;99.90;;;;;;5071364;28;20567;-68
2022/04/14 10:38:38;;;;;;;1999.90;999.90;;;13.60;99.90;;;;;;5070992;28;20496;-67
2022/04/14 10:41:12;;;;;;;1999.90;999.90;;;13.70;99.90;;;;;;5084703;28;20471;-68
2022/04/14 10:43:42;;;;;;;1999.90;999.90;;;13.60;99.90;;;;;;5071331;28;20484;-68
2022/04/14 10:46:14;;;;;;;1999.90;999.90;;;13.50;99.90;;;;;;5071229;28;20442;-69
2022/04/14 10:48:42;;;;;;;1999.90;999.90;;;13.50;99.90;;;;;;5070313;28;20488;-68
2022/04/14 10:51:23;;;;;;;1999.90;999.90;;;13.50;99.90;;;;;;5071201;28;21237;-67
2022/04/14 10:53:55;;;;;;;1999.90;999.90;;;13.70;99.90;;;;;;5070816;28;20475;-68
2022/04/14 10:56:44;;;;;;;1999.90;999.90;;;13.80;99.90;;;;;;5056252;28;20441;-68
2022/04/14 10:59:12;;;;;;;1999.90;999.90;;;13.80;99.90;;;;;;5069927;28;20878;-66
2022/04/14 11:02:05;;;;;;;1999.90;999.90;;;14.00;99.90;;;;;;5070506;28;21113;-69
2022/04/14 11:04:35;;;;;;;1999.90;999.90;;;14.10;99.90;;;;;;5069308;28;20554;-69
2022/04/14 11:07:07;;;;;;;1999.90;999.90;;;14.20;99.90;;;;;;5071261;28;20453;-68
2022/04/14 11:09:49;;;;;;;1999.90;999.90;;;14.30;99.90;;;;;;5094197;22;20577;-67
2022/04/14 11:12:18;;;;;;;1999.90;999.90;;;14.30;99.90;;;;;;5067912;28;20450;-67
2022/04/14 11:14:50;;;;;;;1999.90;999.90;;;14.30;99.90;;;;;;5066028;28;20545;-69
2022/04/14 11:17:57;;;;;;;1999.90;999.90;;;14.30;99.90;;;;;;5067657;28;20445;-66
2022/04/14 11:20:45;;;;;;;1999.90;999.90;;;14.40;99.90;;;;;;5071962;28;20473;-66
2022/04/14 11:23:13;;;;;;;1999.90;999.90;;;14.40;99.90;;;;;;5065129;28;20480;-68
2022/04/14 11:25:43;;;;;;;1999.90;999.90;;;14.60;99.90;;;;;;5064551;28;20446;-66
2022/04/14 11:28:18;;;;;;;1999.90;999.90;;;14.60;99.90;;;;;;5054057;28;20445;-68
2022/04/14 11:30:45;;;;;;;1999.90;999.90;;;14.80;99.90;;;;;;5060652;28;20467;-68
2022/04/14 11:33:14;;;;;;;1999.90;999.90;;;14.90;99.90;;;;;;5085817;28;20467;-68
2022/04/14 11:35:46;;;;;;;1999.90;999.90;;;15.00;99.90;;;;;;5074299;28;20453;-69
2022/04/14 11:38:45;;;;;;;1999.90;999.90;;;15.00;99.90;;;;;;5065987;28;20520;-68
2022/04/14 11:41:29;;;;;;;1999.90;999.90;;;15.20;99.90;;;;;;5070212;28;20950;-68
2022/04/14 11:43:56;;;;;;;1999.90;999.90;;;15.10;99.90;;;;;;5060214;28;20474;-68
2022/04/14 11:46:23;;;;;;;1999.90;999.90;;;15.20;99.90;;;;;;5057823;28;20563;-68
2022/04/14 11:48:51;;;;;;;1999.90;999.90;;;15.20;99.90;;;;;;5068745;28;20461;-68
2022/04/14 11:51:18;;;;;;;1999.90;999.90;;;15.30;99.90;;;;;;5055390;28;20473;-69
2022/04/14 11:53:46;;;;;;;1999.90;999.90;;;15.30;99.90;;;;;;5070179;28;20456;-66
2022/04/14 11:56:16;;;;;;;1999.90;999.90;;;15.80;99.90;;;;;;5059556;28;20449;-68
2022/04/14 11:58:43;;;;;;;1999.90;999.90;;;15.90;99.90;;;;;;5072932;28;20882;-69
2022/04/14 12:01:10;;;;;;;1999.90;999.90;;;16.10;99.90;;;;;;5059740;28;20520;-67
2022/04/14 12:03:36;;;;;;;1999.90;999.90;;;15.80;99.90;;;;;;5064851;28;20473;-68